sensor_id;sensor_type;location;lat;lon;timestamp;P1;durP1;ratioP1;P2;durP2;ratioP2
25247;SDS011;13191;47.472;11.214;2022-08-19T00:00:19;5.30;;;2.67;;
25247;SDS011;13191;47.472;11.214;2022-08-19T00:02:45;4.85;;;2.60;;
25247;SDS011;13191;47.472;11.214;2022-08-19T00:05:12;3.80;;;2.17;;
25247;SDS011;13191;47.472;11.214;2022-08-19T00:07:40;5.07;;;2.10;;
25247;SDS011;13191;47.472;11.214;2022-08-19T00:10:08;3.50;;;2.08;;
25247;SDS011;13191;47.472;11.214;2022-08-19T00:12:34;3.47;;;2.20;;
25247;SDS011;13191;47.472;11.214;2022-08-19T00:15:01;3.55;;;2.35;;
25247;SDS011;13191;47.472;11.214;2022-08-19T00:17:27;3.80;;;2.25;;
25247;SDS011;13191;47.472;11.214;2022-08-19T00:19:52;4.25;;;2.50;;
25247;SDS011;13191;47.472;11.214;2022-08-19T00:22:18;4.00;;;2.40;;
25247;SDS011;13191;47.472;11.214;2022-08-19T00:24:44;3.60;;;2.38;;
25247;SDS011;13191;47.472;11.214;2022-08-19T00:27:10;5.13;;;2.30;;
25247;SDS011;13191;47.472;11.214;2022-08-19T00:29:37;4.18;;;2.15;;
25247;SDS011;13191;47.472;11.214;2022-08-19T00:32:03;3.60;;;2.35;;
25247;SDS011;13191;47.472;11.214;2022-08-19T00:34:30;4.00;;;2.55;;
25247;SDS011;13191;47.472;11.214;2022-08-19T00:36:56;5.10;;;2.60;;
25247;SDS011;13191;47.472;11.214;2022-08-19T00:39:22;3.20;;;2.22;;
25247;SDS011;13191;47.472;11.214;2022-08-19T00:41:48;4.68;;;2.58;;
25247;SDS011;13191;47.472;11.214;2022-08-19T00:44:16;8.30;;;2.05;;
25247;SDS011;13191;47.472;11.214;2022-08-19T00:46:45;5.25;;;2.60;;
25247;SDS011;13191;47.472;11.214;2022-08-19T00:49:14;5.60;;;2.60;;
25247;SDS011;13191;47.472;11.214;2022-08-19T00:52:23;3.97;;;2.20;;
25247;SDS011;13191;47.472;11.214;2022-08-19T00:54:49;4.28;;;2.40;;
25247;SDS011;13191;47.472;11.214;2022-08-19T00:57:18;3.90;;;2.25;;
25247;SDS011;13191;47.472;11.214;2022-08-19T00:59:52;4.30;;;2.70;;
25247;SDS011;13191;47.472;11.214;2022-08-19T01:02:19;4.93;;;2.72;;
25247;SDS011;13191;47.472;11.214;2022-08-19T01:04:44;4.68;;;2.67;;
25247;SDS011;13191;47.472;11.214;2022-08-19T01:07:10;6.93;;;2.45;;
25247;SDS011;13191;47.472;11.214;2022-08-19T01:09:36;4.90;;;2.65;;
25247;SDS011;13191;47.472;11.214;2022-08-19T01:12:02;4.95;;;2.85;;
25247;SDS011;13191;47.472;11.214;2022-08-19T01:14:28;5.28;;;3.22;;
25247;SDS011;13191;47.472;11.214;2022-08-19T01:16:55;4.13;;;2.65;;
25247;SDS011;13191;47.472;11.214;2022-08-19T01:19:32;4.13;;;2.67;;
25247;SDS011;13191;47.472;11.214;2022-08-19T01:22:12;8.15;;;2.92;;
25247;SDS011;13191;47.472;11.214;2022-08-19T01:24:44;6.93;;;2.78;;
25247;SDS011;13191;47.472;11.214;2022-08-19T01:27:09;4.60;;;2.58;;
25247;SDS011;13191;47.472;11.214;2022-08-19T01:29:37;5.88;;;2.47;;
25247;SDS011;13191;47.472;11.214;2022-08-19T01:32:05;4.03;;;2.13;;
25247;SDS011;13191;47.472;11.214;2022-08-19T01:34:31;3.78;;;2.30;;
25247;SDS011;13191;47.472;11.214;2022-08-19T01:36:59;5.70;;;2.58;;
25247;SDS011;13191;47.472;11.214;2022-08-19T01:39:26;4.20;;;2.30;;
25247;SDS011;13191;47.472;11.214;2022-08-19T01:41:53;4.82;;;3.00;;
25247;SDS011;13191;47.472;11.214;2022-08-19T01:44:19;4.10;;;2.17;;
25247;SDS011;13191;47.472;11.214;2022-08-19T01:46:48;4.25;;;2.50;;
25247;SDS011;13191;47.472;11.214;2022-08-19T01:49:15;5.53;;;2.38;;
25247;SDS011;13191;47.472;11.214;2022-08-19T01:51:46;3.35;;;2.00;;
25247;SDS011;13191;47.472;11.214;2022-08-19T01:54:13;4.60;;;2.33;;
25247;SDS011;13191;47.472;11.214;2022-08-19T01:56:40;4.75;;;2.45;;
25247;SDS011;13191;47.472;11.214;2022-08-19T01:59:10;4.13;;;2.28;;
25247;SDS011;13191;47.472;11.214;2022-08-19T02:01:39;3.95;;;2.15;;
25247;SDS011;13191;47.472;11.214;2022-08-19T02:04:05;5.25;;;1.73;;
25247;SDS011;13191;47.472;11.214;2022-08-19T02:06:31;4.35;;;2.20;;
25247;SDS011;13191;47.472;11.214;2022-08-19T02:08:57;3.95;;;1.63;;
25247;SDS011;13191;47.472;11.214;2022-08-19T02:11:26;3.60;;;2.05;;
25247;SDS011;13191;47.472;11.214;2022-08-19T02:13:54;4.10;;;2.50;;
25247;SDS011;13191;47.472;11.214;2022-08-19T02:16:20;5.43;;;2.25;;
25247;SDS011;13191;47.472;11.214;2022-08-19T02:18:46;4.18;;;2.40;;
25247;SDS011;13191;47.472;11.214;2022-08-19T02:21:14;4.35;;;2.38;;
25247;SDS011;13191;47.472;11.214;2022-08-19T02:23:40;5.38;;;2.00;;
25247;SDS011;13191;47.472;11.214;2022-08-19T02:26:07;3.53;;;2.17;;
25247;SDS011;13191;47.472;11.214;2022-08-19T02:28:33;4.00;;;2.08;;
25247;SDS011;13191;47.472;11.214;2022-08-19T02:30:59;4.57;;;2.50;;
25247;SDS011;13191;47.472;11.214;2022-08-19T02:33:25;3.42;;;1.88;;
25247;SDS011;13191;47.472;11.214;2022-08-19T02:35:52;4.30;;;1.95;;
25247;SDS011;13191;47.472;11.214;2022-08-19T02:38:17;4.20;;;1.65;;
25247;SDS011;13191;47.472;11.214;2022-08-19T02:40:53;3.90;;;2.13;;
25247;SDS011;13191;47.472;11.214;2022-08-19T02:43:40;5.13;;;2.13;;
25247;SDS011;13191;47.472;11.214;2022-08-19T02:46:19;2.42;;;1.60;;
25247;SDS011;13191;47.472;11.214;2022-08-19T02:48:48;3.35;;;1.92;;
25247;SDS011;13191;47.472;11.214;2022-08-19T02:51:16;2.60;;;1.40;;
25247;SDS011;13191;47.472;11.214;2022-08-19T02:53:44;3.15;;;2.00;;
25247;SDS011;13191;47.472;11.214;2022-08-19T02:56:09;3.63;;;2.10;;
25247;SDS011;13191;47.472;11.214;2022-08-19T02:58:35;5.75;;;2.25;;
25247;SDS011;13191;47.472;11.214;2022-08-19T03:01:00;4.82;;;2.17;;
25247;SDS011;13191;47.472;11.214;2022-08-19T03:03:26;6.05;;;2.00;;
25247;SDS011;13191;47.472;11.214;2022-08-19T03:06:01;6.00;;;1.80;;
25247;SDS011;13191;47.472;11.214;2022-08-19T03:08:31;3.47;;;2.10;;
25247;SDS011;13191;47.472;11.214;2022-08-19T03:10:57;3.70;;;2.15;;
25247;SDS011;13191;47.472;11.214;2022-08-19T03:13:23;3.10;;;1.92;;
25247;SDS011;13191;47.472;11.214;2022-08-19T03:15:48;3.83;;;2.17;;
25247;SDS011;13191;47.472;11.214;2022-08-19T03:18:14;3.28;;;1.80;;
25247;SDS011;13191;47.472;11.214;2022-08-19T03:20:42;5.05;;;2.22;;
25247;SDS011;13191;47.472;11.214;2022-08-19T03:23:09;3.28;;;1.80;;
25247;SDS011;13191;47.472;11.214;2022-08-19T03:25:36;3.45;;;2.25;;
25247;SDS011;13191;47.472;11.214;2022-08-19T03:28:05;2.63;;;1.67;;
25247;SDS011;13191;47.472;11.214;2022-08-19T03:30:32;2.65;;;1.77;;
25247;SDS011;13191;47.472;11.214;2022-08-19T03:32:58;3.60;;;1.77;;
25247;SDS011;13191;47.472;11.214;2022-08-19T03:35:23;3.50;;;2.00;;
25247;SDS011;13191;47.472;11.214;2022-08-19T03:37:49;2.65;;;1.67;;
25247;SDS011;13191;47.472;11.214;2022-08-19T03:40:15;3.05;;;1.88;;
25247;SDS011;13191;47.472;11.214;2022-08-19T03:42:41;2.95;;;1.77;;
25247;SDS011;13191;47.472;11.214;2022-08-19T03:45:07;4.03;;;2.40;;
25247;SDS011;13191;47.472;11.214;2022-08-19T03:47:33;3.78;;;2.10;;
25247;SDS011;13191;47.472;11.214;2022-08-19T03:49:58;2.95;;;1.75;;
25247;SDS011;13191;47.472;11.214;2022-08-19T03:52:24;3.33;;;1.80;;
25247;SDS011;13191;47.472;11.214;2022-08-19T03:54:50;4.65;;;2.15;;
25247;SDS011;13191;47.472;11.214;2022-08-19T03:57:15;6.35;;;1.98;;
25247;SDS011;13191;47.472;11.214;2022-08-19T03:59:41;3.42;;;1.60;;
25247;SDS011;13191;47.472;11.214;2022-08-19T04:02:08;3.13;;;2.03;;
25247;SDS011;13191;47.472;11.214;2022-08-19T04:04:37;5.05;;;1.98;;
25247;SDS011;13191;47.472;11.214;2022-08-19T04:07:03;2.97;;;1.63;;
25247;SDS011;13191;47.472;11.214;2022-08-19T04:09:29;4.63;;;2.00;;
25247;SDS011;13191;47.472;11.214;2022-08-19T04:11:55;2.50;;;1.48;;
25247;SDS011;13191;47.472;11.214;2022-08-19T04:14:23;4.30;;;1.63;;
25247;SDS011;13191;47.472;11.214;2022-08-19T04:16:55;2.33;;;1.42;;
25247;SDS011;13191;47.472;11.214;2022-08-19T04:19:21;4.70;;;2.08;;
25247;SDS011;13191;47.472;11.214;2022-08-19T04:21:48;5.07;;;1.73;;
25247;SDS011;13191;47.472;11.214;2022-08-19T04:24:16;6.05;;;1.50;;
25247;SDS011;13191;47.472;11.214;2022-08-19T04:26:42;2.85;;;1.65;;
25247;SDS011;13191;47.472;11.214;2022-08-19T04:29:09;10.20;;;1.60;;
25247;SDS011;13191;47.472;11.214;2022-08-19T04:31:37;3.33;;;1.98;;
25247;SDS011;13191;47.472;11.214;2022-08-19T04:34:03;3.10;;;1.80;;
25247;SDS011;13191;47.472;11.214;2022-08-19T04:36:33;3.17;;;1.80;;
25247;SDS011;13191;47.472;11.214;2022-08-19T04:39:03;3.38;;;1.55;;
25247;SDS011;13191;47.472;11.214;2022-08-19T04:41:30;2.53;;;1.52;;
25247;SDS011;13191;47.472;11.214;2022-08-19T04:44:14;3.60;;;1.80;;
25247;SDS011;13191;47.472;11.214;2022-08-19T04:46:43;4.57;;;2.10;;
25247;SDS011;13191;47.472;11.214;2022-08-19T04:49:09;2.67;;;1.45;;
25247;SDS011;13191;47.472;11.214;2022-08-19T04:51:34;2.95;;;1.55;;
25247;SDS011;13191;47.472;11.214;2022-08-19T04:54:02;2.47;;;1.30;;
25247;SDS011;13191;47.472;11.214;2022-08-19T04:56:28;3.53;;;1.67;;
25247;SDS011;13191;47.472;11.214;2022-08-19T04:58:54;3.40;;;1.80;;
25247;SDS011;13191;47.472;11.214;2022-08-19T05:01:25;3.15;;;1.42;;
25247;SDS011;13191;47.472;11.214;2022-08-19T05:03:53;7.10;;;1.73;;
25247;SDS011;13191;47.472;11.214;2022-08-19T05:06:20;3.80;;;1.90;;
25247;SDS011;13191;47.472;11.214;2022-08-19T05:08:47;3.15;;;1.50;;
25247;SDS011;13191;47.472;11.214;2022-08-19T05:11:14;3.05;;;1.63;;
25247;SDS011;13191;47.472;11.214;2022-08-19T05:13:42;3.20;;;1.50;;
25247;SDS011;13191;47.472;11.214;2022-08-19T05:16:09;2.83;;;1.58;;
25247;SDS011;13191;47.472;11.214;2022-08-19T05:18:36;2.67;;;1.35;;
25247;SDS011;13191;47.472;11.214;2022-08-19T05:21:21;3.53;;;1.70;;
25247;SDS011;13191;47.472;11.214;2022-08-19T05:24:06;4.05;;;1.33;;
25247;SDS011;13191;47.472;11.214;2022-08-19T05:26:35;2.60;;;1.42;;
25247;SDS011;13191;47.472;11.214;2022-08-19T05:29:04;3.25;;;2.05;;
25247;SDS011;13191;47.472;11.214;2022-08-19T05:31:32;3.63;;;1.60;;
25247;SDS011;13191;47.472;11.214;2022-08-19T05:33:57;5.20;;;1.85;;
25247;SDS011;13191;47.472;11.214;2022-08-19T05:36:24;2.83;;;1.63;;
25247;SDS011;13191;47.472;11.214;2022-08-19T05:38:51;2.75;;;1.45;;
25247;SDS011;13191;47.472;11.214;2022-08-19T05:41:18;3.33;;;1.98;;
25247;SDS011;13191;47.472;11.214;2022-08-19T05:43:44;3.45;;;2.20;;
25247;SDS011;13191;47.472;11.214;2022-08-19T05:46:15;3.65;;;1.88;;
25247;SDS011;13191;47.472;11.214;2022-08-19T05:48:43;4.43;;;1.60;;
25247;SDS011;13191;47.472;11.214;2022-08-19T05:51:09;3.30;;;1.90;;
25247;SDS011;13191;47.472;11.214;2022-08-19T05:53:36;2.88;;;1.50;;
25247;SDS011;13191;47.472;11.214;2022-08-19T05:56:05;4.57;;;2.03;;
25247;SDS011;13191;47.472;11.214;2022-08-19T05:58:33;3.10;;;1.75;;
25247;SDS011;13191;47.472;11.214;2022-08-19T06:00:59;2.83;;;1.48;;
25247;SDS011;13191;47.472;11.214;2022-08-19T06:03:29;2.33;;;1.58;;
25247;SDS011;13191;47.472;11.214;2022-08-19T06:05:58;3.30;;;1.60;;
25247;SDS011;13191;47.472;11.214;2022-08-19T06:08:25;3.72;;;1.67;;
25247;SDS011;13191;47.472;11.214;2022-08-19T06:10:51;2.95;;;1.60;;
25247;SDS011;13191;47.472;11.214;2022-08-19T06:13:17;2.60;;;1.50;;
25247;SDS011;13191;47.472;11.214;2022-08-19T06:15:44;2.65;;;1.45;;
25247;SDS011;13191;47.472;11.214;2022-08-19T06:18:11;3.90;;;1.55;;
25247;SDS011;13191;47.472;11.214;2022-08-19T06:20:37;3.00;;;1.38;;
25247;SDS011;13191;47.472;11.214;2022-08-19T06:23:03;3.15;;;1.73;;
25247;SDS011;13191;47.472;11.214;2022-08-19T06:25:28;2.53;;;1.37;;
25247;SDS011;13191;47.472;11.214;2022-08-19T06:27:54;2.30;;;1.40;;
25247;SDS011;13191;47.472;11.214;2022-08-19T06:30:20;2.60;;;1.48;;
25247;SDS011;13191;47.472;11.214;2022-08-19T06:32:45;2.85;;;1.50;;
25247;SDS011;13191;47.472;11.214;2022-08-19T06:35:11;2.72;;;1.58;;
25247;SDS011;13191;47.472;11.214;2022-08-19T06:37:38;3.25;;;1.40;;
25247;SDS011;13191;47.472;11.214;2022-08-19T06:40:03;3.55;;;1.40;;
25247;SDS011;13191;47.472;11.214;2022-08-19T06:42:30;2.65;;;1.40;;
25247;SDS011;13191;47.472;11.214;2022-08-19T06:44:56;2.58;;;1.48;;
25247;SDS011;13191;47.472;11.214;2022-08-19T06:47:22;3.22;;;1.40;;
25247;SDS011;13191;47.472;11.214;2022-08-19T06:49:48;3.00;;;1.67;;
25247;SDS011;13191;47.472;11.214;2022-08-19T06:52:14;3.22;;;1.70;;
25247;SDS011;13191;47.472;11.214;2022-08-19T06:54:40;3.08;;;1.50;;
25247;SDS011;13191;47.472;11.214;2022-08-19T06:57:07;2.28;;;1.08;;
25247;SDS011;13191;47.472;11.214;2022-08-19T06:59:34;2.58;;;1.00;;
25247;SDS011;13191;47.472;11.214;2022-08-19T07:02:01;2.55;;;1.20;;
25247;SDS011;13191;47.472;11.214;2022-08-19T07:04:30;1.90;;;0.85;;
25247;SDS011;13191;47.472;11.214;2022-08-19T07:07:11;3.55;;;1.38;;
25247;SDS011;13191;47.472;11.214;2022-08-19T07:09:40;2.58;;;0.98;;
25247;SDS011;13191;47.472;11.214;2022-08-19T07:12:08;1.73;;;1.08;;
25247;SDS011;13191;47.472;11.214;2022-08-19T07:14:35;2.70;;;1.20;;
25247;SDS011;13191;47.472;11.214;2022-08-19T07:17:07;1.83;;;1.00;;
25247;SDS011;13191;47.472;11.214;2022-08-19T07:19:34;1.95;;;1.20;;
25247;SDS011;13191;47.472;11.214;2022-08-19T07:22:01;4.20;;;1.40;;
25247;SDS011;13191;47.472;11.214;2022-08-19T07:24:30;1.85;;;1.00;;
25247;SDS011;13191;47.472;11.214;2022-08-19T07:26:56;2.20;;;1.17;;
25247;SDS011;13191;47.472;11.214;2022-08-19T07:29:25;3.70;;;1.63;;
25247;SDS011;13191;47.472;11.214;2022-08-19T07:31:52;5.07;;;1.55;;
25247;SDS011;13191;47.472;11.214;2022-08-19T07:34:21;2.65;;;1.40;;
25247;SDS011;13191;47.472;11.214;2022-08-19T07:36:48;17.00;;;4.07;;
25247;SDS011;13191;47.472;11.214;2022-08-19T07:39:16;5.88;;;1.88;;
25247;SDS011;13191;47.472;11.214;2022-08-19T07:41:48;1.65;;;1.10;;
25247;SDS011;13191;47.472;11.214;2022-08-19T07:44:14;3.72;;;1.42;;
25247;SDS011;13191;47.472;11.214;2022-08-19T07:46:42;3.30;;;1.20;;
25247;SDS011;13191;47.472;11.214;2022-08-19T07:49:10;1.45;;;1.00;;
25247;SDS011;13191;47.472;11.214;2022-08-19T07:51:42;2.10;;;1.30;;
25247;SDS011;13191;47.472;11.214;2022-08-19T07:54:10;2.65;;;1.13;;
25247;SDS011;13191;47.472;11.214;2022-08-19T07:56:36;2.78;;;1.45;;
25247;SDS011;13191;47.472;11.214;2022-08-19T07:59:02;2.63;;;1.30;;
25247;SDS011;13191;47.472;11.214;2022-08-19T08:01:27;5.82;;;1.42;;
25247;SDS011;13191;47.472;11.214;2022-08-19T08:03:54;3.13;;;1.25;;
25247;SDS011;13191;47.472;11.214;2022-08-19T08:06:40;3.42;;;1.42;;
25247;SDS011;13191;47.472;11.214;2022-08-19T08:09:27;4.05;;;1.30;;
25247;SDS011;13191;47.472;11.214;2022-08-19T08:11:57;2.38;;;1.20;;
25247;SDS011;13191;47.472;11.214;2022-08-19T08:14:38;2.10;;;1.30;;
25247;SDS011;13191;47.472;11.214;2022-08-19T08:17:07;3.60;;;1.48;;
25247;SDS011;13191;47.472;11.214;2022-08-19T08:19:33;4.78;;;1.13;;
25247;SDS011;13191;47.472;11.214;2022-08-19T08:22:00;1.95;;;1.10;;
25247;SDS011;13191;47.472;11.214;2022-08-19T08:24:27;2.80;;;1.23;;
25247;SDS011;13191;47.472;11.214;2022-08-19T08:26:55;2.33;;;1.10;;
25247;SDS011;13191;47.472;11.214;2022-08-19T08:29:23;5.13;;;1.38;;
25247;SDS011;13191;47.472;11.214;2022-08-19T08:31:50;2.40;;;1.35;;
25247;SDS011;13191;47.472;11.214;2022-08-19T08:34:16;3.05;;;1.33;;
25247;SDS011;13191;47.472;11.214;2022-08-19T08:36:43;2.80;;;1.63;;
25247;SDS011;13191;47.472;11.214;2022-08-19T08:39:14;3.67;;;1.38;;
25247;SDS011;13191;47.472;11.214;2022-08-19T08:44:18;3.13;;;1.45;;
25247;SDS011;13191;47.472;11.214;2022-08-19T08:46:49;7.07;;;1.10;;
25247;SDS011;13191;47.472;11.214;2022-08-19T08:51:51;2.40;;;1.10;;
25247;SDS011;13191;47.472;11.214;2022-08-19T08:54:23;2.10;;;1.02;;
25247;SDS011;13191;47.472;11.214;2022-08-19T08:56:52;2.17;;;0.98;;
25247;SDS011;13191;47.472;11.214;2022-08-19T08:59:24;3.67;;;1.00;;
25247;SDS011;13191;47.472;11.214;2022-08-19T09:01:59;2.53;;;1.00;;
25247;SDS011;13191;47.472;11.214;2022-08-19T09:04:25;2.38;;;0.95;;
25247;SDS011;13191;47.472;11.214;2022-08-19T09:12:06;3.15;;;1.15;;
25247;SDS011;13191;47.472;11.214;2022-08-19T09:14:50;2.10;;;1.00;;
25247;SDS011;13191;47.472;11.214;2022-08-19T09:17:24;3.15;;;1.20;;
25247;SDS011;13191;47.472;11.214;2022-08-19T09:20:06;1.77;;;1.00;;
25247;SDS011;13191;47.472;11.214;2022-08-19T09:22:36;1.80;;;1.00;;
25247;SDS011;13191;47.472;11.214;2022-08-19T09:25:03;3.40;;;1.10;;
25247;SDS011;13191;47.472;11.214;2022-08-19T09:27:30;5.03;;;1.27;;
25247;SDS011;13191;47.472;11.214;2022-08-19T09:29:57;1.92;;;1.17;;
25247;SDS011;13191;47.472;11.214;2022-08-19T09:32:23;2.17;;;1.00;;
25247;SDS011;13191;47.472;11.214;2022-08-19T09:34:51;1.70;;;0.98;;
25247;SDS011;13191;47.472;11.214;2022-08-19T09:37:20;2.13;;;1.05;;
25247;SDS011;13191;47.472;11.214;2022-08-19T09:39:48;1.63;;;0.75;;
25247;SDS011;13191;47.472;11.214;2022-08-19T09:42:13;2.30;;;1.08;;
25247;SDS011;13191;47.472;11.214;2022-08-19T09:44:39;2.50;;;0.77;;
25247;SDS011;13191;47.472;11.214;2022-08-19T09:47:06;1.33;;;0.70;;
25247;SDS011;13191;47.472;11.214;2022-08-19T09:49:33;1.35;;;0.80;;
25247;SDS011;13191;47.472;11.214;2022-08-19T09:51:59;2.30;;;0.98;;
25247;SDS011;13191;47.472;11.214;2022-08-19T09:54:24;2.60;;;1.20;;
25247;SDS011;13191;47.472;11.214;2022-08-19T09:56:51;1.55;;;0.85;;
25247;SDS011;13191;47.472;11.214;2022-08-19T09:59:18;1.70;;;0.93;;
25247;SDS011;13191;47.472;11.214;2022-08-19T10:01:43;1.65;;;0.93;;
25247;SDS011;13191;47.472;11.214;2022-08-19T10:04:09;2.10;;;1.10;;
25247;SDS011;13191;47.472;11.214;2022-08-19T10:06:36;1.73;;;0.93;;
25247;SDS011;13191;47.472;11.214;2022-08-19T10:09:04;1.98;;;0.90;;
25247;SDS011;13191;47.472;11.214;2022-08-19T10:11:31;2.33;;;0.80;;
25247;SDS011;13191;47.472;11.214;2022-08-19T10:13:57;1.90;;;0.90;;
25247;SDS011;13191;47.472;11.214;2022-08-19T10:16:24;1.50;;;0.90;;
25247;SDS011;13191;47.472;11.214;2022-08-19T10:18:50;2.30;;;1.20;;
25247;SDS011;13191;47.472;11.214;2022-08-19T10:21:20;2.03;;;1.00;;
25247;SDS011;13191;47.472;11.214;2022-08-19T10:26:15;1.15;;;0.80;;
25247;SDS011;13191;47.472;11.214;2022-08-19T10:28:46;1.35;;;0.68;;
25247;SDS011;13191;47.472;11.214;2022-08-19T10:31:15;1.20;;;0.70;;
25247;SDS011;13191;47.472;11.214;2022-08-19T10:33:44;1.00;;;0.60;;
25247;SDS011;13191;47.472;11.214;2022-08-19T10:36:12;5.88;;;0.88;;
25247;SDS011;13191;47.472;11.214;2022-08-19T10:38:42;2.47;;;1.13;;
25247;SDS011;13191;47.472;11.214;2022-08-19T10:41:13;1.10;;;0.80;;
25247;SDS011;13191;47.472;11.214;2022-08-19T10:46:08;2.08;;;1.20;;
25247;SDS011;13191;47.472;11.214;2022-08-19T10:48:34;2.90;;;1.15;;
25247;SDS011;13191;47.472;11.214;2022-08-19T10:51:01;1.23;;;0.70;;
25247;SDS011;13191;47.472;11.214;2022-08-19T10:53:45;1.67;;;0.93;;
25247;SDS011;13191;47.472;11.214;2022-08-19T10:56:11;3.45;;;1.10;;
25247;SDS011;13191;47.472;11.214;2022-08-19T10:58:55;1.25;;;0.80;;
25247;SDS011;13191;47.472;11.214;2022-08-19T11:01:25;1.73;;;1.00;;
25247;SDS011;13191;47.472;11.214;2022-08-19T11:03:51;1.35;;;0.70;;
25247;SDS011;13191;47.472;11.214;2022-08-19T11:06:17;1.10;;;0.55;;
25247;SDS011;13191;47.472;11.214;2022-08-19T11:08:44;1.83;;;0.57;;
25247;SDS011;13191;47.472;11.214;2022-08-19T11:11:11;1.27;;;0.60;;
25247;SDS011;13191;47.472;11.214;2022-08-19T11:13:38;1.92;;;0.77;;
25247;SDS011;13191;47.472;11.214;2022-08-19T11:16:09;1.40;;;0.70;;
25247;SDS011;13191;47.472;11.214;2022-08-19T11:18:39;1.40;;;0.60;;
25247;SDS011;13191;47.472;11.214;2022-08-19T11:21:12;1.33;;;0.63;;
25247;SDS011;13191;47.472;11.214;2022-08-19T11:23:42;1.20;;;0.65;;
25247;SDS011;13191;47.472;11.214;2022-08-19T11:26:08;1.10;;;0.52;;
25247;SDS011;13191;47.472;11.214;2022-08-19T11:28:34;0.98;;;0.60;;
25247;SDS011;13191;47.472;11.214;2022-08-19T11:31:01;0.75;;;0.55;;
25247;SDS011;13191;47.472;11.214;2022-08-19T11:33:28;1.45;;;0.60;;
25247;SDS011;13191;47.472;11.214;2022-08-19T11:35:56;1.67;;;0.50;;
25247;SDS011;13191;47.472;11.214;2022-08-19T11:38:24;1.33;;;0.60;;
25247;SDS011;13191;47.472;11.214;2022-08-19T11:40:54;0.82;;;0.50;;
25247;SDS011;13191;47.472;11.214;2022-08-19T11:43:24;0.65;;;0.40;;
25247;SDS011;13191;47.472;11.214;2022-08-19T11:45:51;0.77;;;0.50;;
25247;SDS011;13191;47.472;11.214;2022-08-19T11:48:17;0.70;;;0.45;;
25247;SDS011;13191;47.472;11.214;2022-08-19T11:50:47;0.40;;;0.30;;
25247;SDS011;13191;47.472;11.214;2022-08-19T11:53:17;0.98;;;0.40;;
25247;SDS011;13191;47.472;11.214;2022-08-19T11:55:45;0.52;;;0.30;;
25247;SDS011;13191;47.472;11.214;2022-08-19T11:58:12;1.23;;;0.50;;
25247;SDS011;13191;47.472;11.214;2022-08-19T12:00:39;2.78;;;0.95;;
25247;SDS011;13191;47.472;11.214;2022-08-19T12:03:05;0.68;;;0.40;;
25247;SDS011;13191;47.472;11.214;2022-08-19T12:05:30;1.20;;;0.50;;
25247;SDS011;13191;47.472;11.214;2022-08-19T12:07:56;0.65;;;0.40;;
25247;SDS011;13191;47.472;11.214;2022-08-19T12:10:21;1.02;;;0.43;;
25247;SDS011;13191;47.472;11.214;2022-08-19T12:12:47;0.52;;;0.38;;
25247;SDS011;13191;47.472;11.214;2022-08-19T12:15:13;0.47;;;0.30;;
25247;SDS011;13191;47.472;11.214;2022-08-19T12:17:39;0.70;;;0.40;;
25247;SDS011;13191;47.472;11.214;2022-08-19T12:20:07;0.73;;;0.40;;
25247;SDS011;13191;47.472;11.214;2022-08-19T12:22:34;0.60;;;0.30;;
25247;SDS011;13191;47.472;11.214;2022-08-19T12:25:02;0.40;;;0.30;;
25247;SDS011;13191;47.472;11.214;2022-08-19T12:27:28;1.75;;;0.40;;
25247;SDS011;13191;47.472;11.214;2022-08-19T12:29:54;2.28;;;0.50;;
25247;SDS011;13191;47.472;11.214;2022-08-19T12:32:19;0.90;;;0.35;;
25247;SDS011;13191;47.472;11.214;2022-08-19T12:34:46;0.38;;;0.28;;
25247;SDS011;13191;47.472;11.214;2022-08-19T12:37:12;1.13;;;0.50;;
25247;SDS011;13191;47.472;11.214;2022-08-19T12:39:39;0.20;;;0.15;;
25247;SDS011;13191;47.472;11.214;2022-08-19T12:42:06;1.02;;;0.60;;
25247;SDS011;13191;47.472;11.214;2022-08-19T12:44:33;1.02;;;0.50;;
25247;SDS011;13191;47.472;11.214;2022-08-19T12:47:00;1.33;;;0.47;;
25247;SDS011;13191;47.472;11.214;2022-08-19T12:49:28;1.83;;;0.47;;
25247;SDS011;13191;47.472;11.214;2022-08-19T12:51:54;0.50;;;0.40;;
25247;SDS011;13191;47.472;11.214;2022-08-19T12:54:19;3.80;;;0.57;;
25247;SDS011;13191;47.472;11.214;2022-08-19T12:56:45;0.75;;;0.40;;
25247;SDS011;13191;47.472;11.214;2022-08-19T12:59:10;1.02;;;0.50;;
25247;SDS011;13191;47.472;11.214;2022-08-19T13:01:36;0.52;;;0.35;;
25247;SDS011;13191;47.472;11.214;2022-08-19T13:04:03;1.35;;;0.55;;
25247;SDS011;13191;47.472;11.214;2022-08-19T13:06:28;2.00;;;0.63;;
25247;SDS011;13191;47.472;11.214;2022-08-19T13:08:54;0.98;;;0.40;;
25247;SDS011;13191;47.472;11.214;2022-08-19T13:11:20;1.15;;;0.45;;
25247;SDS011;13191;47.472;11.214;2022-08-19T13:13:49;1.27;;;0.68;;
25247;SDS011;13191;47.472;11.214;2022-08-19T13:16:16;0.85;;;0.52;;
25247;SDS011;13191;47.472;11.214;2022-08-19T13:18:42;0.77;;;0.45;;
25247;SDS011;13191;47.472;11.214;2022-08-19T13:21:12;2.58;;;1.08;;
25247;SDS011;13191;47.472;11.214;2022-08-19T13:23:38;1.08;;;0.57;;
25247;SDS011;13191;47.472;11.214;2022-08-19T13:26:06;1.08;;;0.68;;
25247;SDS011;13191;47.472;11.214;2022-08-19T13:28:33;1.33;;;0.80;;
25247;SDS011;13191;47.472;11.214;2022-08-19T13:31:19;0.52;;;0.32;;
25247;SDS011;13191;47.472;11.214;2022-08-19T13:34:05;1.67;;;0.50;;
25247;SDS011;13191;47.472;11.214;2022-08-19T13:36:31;1.17;;;0.60;;
25247;SDS011;13191;47.472;11.214;2022-08-19T13:39:00;4.97;;;0.60;;
25247;SDS011;13191;47.472;11.214;2022-08-19T13:41:27;1.45;;;0.70;;
25247;SDS011;13191;47.472;11.214;2022-08-19T13:43:52;3.28;;;0.95;;
25247;SDS011;13191;47.472;11.214;2022-08-19T13:46:19;1.33;;;0.70;;
25247;SDS011;13191;47.472;11.214;2022-08-19T13:48:45;1.35;;;0.73;;
25247;SDS011;13191;47.472;11.214;2022-08-19T13:51:13;0.90;;;0.60;;
25247;SDS011;13191;47.472;11.214;2022-08-19T13:53:41;0.93;;;0.50;;
25247;SDS011;13191;47.472;11.214;2022-08-19T13:56:09;0.70;;;0.40;;
25247;SDS011;13191;47.472;11.214;2022-08-19T13:58:40;0.85;;;0.40;;
25247;SDS011;13191;47.472;11.214;2022-08-19T14:01:06;0.93;;;0.55;;
25247;SDS011;13191;47.472;11.214;2022-08-19T14:03:32;0.60;;;0.30;;
25247;SDS011;13191;47.472;11.214;2022-08-19T14:05:58;1.05;;;0.60;;
25247;SDS011;13191;47.472;11.214;2022-08-19T14:08:24;0.45;;;0.30;;
25247;SDS011;13191;47.472;11.214;2022-08-19T14:10:52;2.00;;;0.77;;
25247;SDS011;13191;47.472;11.214;2022-08-19T14:13:19;0.75;;;0.40;;
25247;SDS011;13191;47.472;11.214;2022-08-19T14:15:46;1.17;;;0.57;;
25247;SDS011;13191;47.472;11.214;2022-08-19T14:18:13;5.05;;;0.85;;
25247;SDS011;13191;47.472;11.214;2022-08-19T14:20:39;1.63;;;0.77;;
25247;SDS011;13191;47.472;11.214;2022-08-19T14:23:05;0.57;;;0.32;;
25247;SDS011;13191;47.472;11.214;2022-08-19T14:25:31;0.63;;;0.30;;
25247;SDS011;13191;47.472;11.214;2022-08-19T14:27:57;0.55;;;0.30;;
25247;SDS011;13191;47.472;11.214;2022-08-19T14:30:28;1.00;;;0.30;;
25247;SDS011;13191;47.472;11.214;2022-08-19T14:32:56;0.60;;;0.30;;
25247;SDS011;13191;47.472;11.214;2022-08-19T14:35:26;0.52;;;0.40;;
25247;SDS011;13191;47.472;11.214;2022-08-19T14:37:53;1.15;;;0.60;;
25247;SDS011;13191;47.472;11.214;2022-08-19T14:40:21;0.55;;;0.30;;
25247;SDS011;13191;47.472;11.214;2022-08-19T14:42:51;0.30;;;0.28;;
25247;SDS011;13191;47.472;11.214;2022-08-19T14:45:24;0.25;;;0.22;;
25247;SDS011;13191;47.472;11.214;2022-08-19T14:47:51;0.32;;;0.32;;
25247;SDS011;13191;47.472;11.214;2022-08-19T14:50:17;2.08;;;0.32;;
25247;SDS011;13191;47.472;11.214;2022-08-19T14:52:43;0.30;;;0.20;;